Decoded Metar for LHPA (PAPA in HUNGARY) (IATA:N/A) | Meteo·Mobile Aviation Weather
aviador You're here:

LHPA Decoded Metar

PAPA in HUNGARY
Report Time2019-06-17 06:15:00
UTC Time2019-06-17 06:36:45
Flight Rules vfr VFR
Wind350° at 06 kt
Visibility9999 m
Phenomena:N/A
Clouds:Few 027 Hf
Scattered 040 Hf
Broken 083 Hf
Expected CloudBase > 1,200 ft AGL from Temp-Dew spread
Ceiling8,300 ft
Temp19°C (ISA +5)
Dew Point16°C (83% RH)
AAT18.8°C
QNH1019 hPa
Density Alt1,109 ft
Elevation486 ft
Report Wrong Elevation
Raw Report
METAR LHPA 170615Z 35006KT 9999 FEW027 SCT040 BKN083 19/16 Q1019
NOSIG RMK BLU=

Extra information for LHPA:More info

Metar Taf Metar & Taf Last 4 Metars F.Rules Stats Wind Profile Meteogram Temp Stats Airport Information Weather charts Add Link Nearby VenuesMetar ALERT Operation Metar Decoded Social comments